createdAt,value
2019-01-24T00:00:01.116Z,26.90
2019-01-24T00:02:30.041Z,27.67
2019-01-24T00:04:58.644Z,27.40
2019-01-24T00:07:27.326Z,26.23
2019-01-24T00:09:55.930Z,25.30
2019-01-24T00:12:24.558Z,26.43
2019-01-24T00:14:53.222Z,26.67
2019-01-24T00:17:21.864Z,26.23
2019-01-24T00:19:50.483Z,27.33
2019-01-24T00:22:19.079Z,26.25
2019-01-24T00:24:47.663Z,24.70
2019-01-24T00:27:16.270Z,26.87
2019-01-24T00:29:44.870Z,26.90
2019-01-24T00:32:13.453Z,26.27
2019-01-24T00:34:42.108Z,26.73
2019-01-24T00:37:10.731Z,27.13
2019-01-24T00:39:39.358Z,26.30
2019-01-24T00:42:07.971Z,27.83
2019-01-24T00:44:36.566Z,25.73
2019-01-24T00:47:05.178Z,26.83
2019-01-24T00:49:33.831Z,27.30
2019-01-24T00:52:02.414Z,23.23
2019-01-24T00:54:31.037Z,26.20
2019-01-24T00:56:59.623Z,26.23
2019-01-24T00:59:28.246Z,25.83
2019-01-24T01:01:56.851Z,24.70
2019-01-24T01:04:29.726Z,25.70
2019-01-24T01:06:55.858Z,26.40
2019-01-24T01:09:24.472Z,26.20
2019-01-24T01:11:53.067Z,27.73
2019-01-24T01:14:21.669Z,27.63
2019-01-24T01:16:50.260Z,29.53
2019-01-24T01:19:18.899Z,26.70
2019-01-24T01:21:47.497Z,26.33
2019-01-24T01:24:16.127Z,30.30
2019-01-24T01:26:44.748Z,27.07
2019-01-24T01:29:13.469Z,28.37
2019-01-24T01:31:42.070Z,27.23
2019-01-24T01:34:10.712Z,27.70
2019-01-24T01:36:39.358Z,26.43
2019-01-24T01:39:09.255Z,28.17
2019-01-24T01:41:37.873Z,24.30
2019-01-24T01:44:06.511Z,26.40
2019-01-24T01:46:35.173Z,27.40
2019-01-24T01:49:03.862Z,28.07
2019-01-24T01:51:32.494Z,27.17
2019-01-24T01:54:01.115Z,28.32
2019-01-24T01:56:29.741Z,27.67
2019-01-24T01:58:58.397Z,29.00
2019-01-24T02:01:27.084Z,28.73
2019-01-24T02:03:55.663Z,27.67
2019-01-24T02:06:24.251Z,28.53
2019-01-24T02:08:52.875Z,30.33
2019-01-24T02:11:21.631Z,29.40
2019-01-24T02:13:50.272Z,30.30
2019-01-24T02:16:19.174Z,29.77
2019-01-24T02:18:47.827Z,28.97
2019-01-24T02:21:16.452Z,29.30
2019-01-24T02:23:45.048Z,29.80
2019-01-24T02:26:13.659Z,30.60
2019-01-24T02:28:42.343Z,31.10
2019-01-24T02:31:11.020Z,30.90
2019-01-24T02:33:39.668Z,30.17
2019-01-24T02:36:08.290Z,30.67
2019-01-24T02:38:36.950Z,30.87
2019-01-24T02:41:05.547Z,31.77
2019-01-24T02:43:34.192Z,31.37
2019-01-24T02:46:02.783Z,32.27
2019-01-24T02:48:31.373Z,33.33
2019-01-24T02:51:00.056Z,31.40
2019-01-24T02:53:28.605Z,31.70
2019-01-24T02:55:57.262Z,30.90
2019-01-24T02:58:25.890Z,32.20
2019-01-24T03:00:54.504Z,32.97
2019-01-24T03:03:23.120Z,32.17
2019-01-24T03:05:51.796Z,31.60
2019-01-24T03:08:20.408Z,32.10
2019-01-24T03:10:49.065Z,31.87
2019-01-24T03:13:17.709Z,32.13
2019-01-24T03:15:46.333Z,33.83
2019-01-24T03:18:15.019Z,33.40
2019-01-24T03:20:43.645Z,32.67
2019-01-24T03:23:12.276Z,33.30
2019-01-24T03:25:40.900Z,31.27
2019-01-24T03:28:09.563Z,31.93
2019-01-24T03:30:38.201Z,32.57
2019-01-24T03:33:06.788Z,32.67
2019-01-24T03:35:35.401Z,31.33
2019-01-24T03:38:03.966Z,32.50
2019-01-24T03:40:32.584Z,31.23
2019-01-24T03:43:01.193Z,32.40
2019-01-24T03:45:29.821Z,30.57
2019-01-24T03:47:58.403Z,29.03
2019-01-24T03:50:26.998Z,31.27
2019-01-24T03:52:55.641Z,33.10
2019-01-24T03:55:24.283Z,31.23
2019-01-24T03:57:52.913Z,32.67
2019-01-24T04:00:23.252Z,31.70
2019-01-24T04:02:51.866Z,31.83
2019-01-24T04:05:20.513Z,31.63
2019-01-24T04:07:49.193Z,31.90
2019-01-24T04:10:18.825Z,31.77
2019-01-24T04:12:47.434Z,33.57
2019-01-24T04:15:18.226Z,31.37
2019-01-24T04:17:46.845Z,33.10
2019-01-24T04:20:16.003Z,33.33
2019-01-24T04:22:44.609Z,35.13
2019-01-24T04:25:13.260Z,33.63
2019-01-24T04:27:41.920Z,35.17
2019-01-24T04:30:13.449Z,30.83
2019-01-24T04:32:42.143Z,31.07
2019-01-24T04:35:11.110Z,32.00
2019-01-24T04:37:39.742Z,31.83
2019-01-24T04:40:10.694Z,33.03
2019-01-24T04:42:39.285Z,31.83
2019-01-24T04:45:09.090Z,32.63
2019-01-24T04:47:37.757Z,33.27
2019-01-24T04:50:06.687Z,33.13
2019-01-24T04:52:35.307Z,33.13
2019-01-24T04:55:04.160Z,34.73
2019-01-24T04:57:32.830Z,32.87
2019-01-24T05:00:01.441Z,35.43
2019-01-24T05:02:30.018Z,33.80
2019-01-24T05:04:58.598Z,33.43
2019-01-24T05:07:27.161Z,35.33
2019-01-24T05:09:55.786Z,34.50
2019-01-24T05:12:24.500Z,32.83
2019-01-24T05:14:54.082Z,35.17
2019-01-24T05:17:23.493Z,36.43
2019-01-24T05:19:52.337Z,34.73
2019-01-24T05:22:21.031Z,35.23
2019-01-24T05:24:49.649Z,34.30
2019-01-24T05:27:18.282Z,33.95
2019-01-24T05:29:46.921Z,36.23
2019-01-24T05:32:15.550Z,36.17
2019-01-24T05:34:44.228Z,36.47
2019-01-24T05:37:13.055Z,36.60
2019-01-24T05:39:41.915Z,37.00
2019-01-24T05:42:10.549Z,36.70
2019-01-24T05:44:39.135Z,36.40
2019-01-24T05:47:07.744Z,35.73
2019-01-24T05:49:36.348Z,35.50
2019-01-24T05:52:05.014Z,36.77
2019-01-24T05:54:33.716Z,34.83
2019-01-24T05:57:02.313Z,37.33
2019-01-24T05:59:30.897Z,36.13
2019-01-24T06:02:00.193Z,38.13
2019-01-24T06:04:28.798Z,38.83
2019-01-24T06:06:57.388Z,37.47
2019-01-24T06:09:26.038Z,38.60
2019-01-24T06:11:54.607Z,39.13
2019-01-24T06:14:23.308Z,40.60
2019-01-24T06:16:51.898Z,39.23
2019-01-24T06:19:20.555Z,41.33
2019-01-24T06:21:49.302Z,41.53
2019-01-24T06:24:17.902Z,41.87
2019-01-24T06:26:46.511Z,40.47
2019-01-24T06:29:15.100Z,37.03
2019-01-24T06:31:43.699Z,40.07
2019-01-24T06:34:12.330Z,39.77
2019-01-24T06:36:41.006Z,42.13
2019-01-24T06:39:09.871Z,39.77
2019-01-24T06:41:38.489Z,40.00
2019-01-24T06:44:07.186Z,40.07
2019-01-24T06:46:35.791Z,40.03
2019-01-24T06:49:04.479Z,40.73
2019-01-24T06:51:33.104Z,41.70
2019-01-24T06:54:01.727Z,41.40
2019-01-24T06:56:30.327Z,43.15
2019-01-24T06:58:58.959Z,43.23
2019-01-24T07:01:27.707Z,41.60
2019-01-24T07:03:56.393Z,41.07
2019-01-24T07:06:25.160Z,43.33
2019-01-24T07:08:53.871Z,40.20
2019-01-24T07:11:22.529Z,42.00
2019-01-24T07:13:51.231Z,40.67
2019-01-24T07:16:19.863Z,41.80
2019-01-24T07:18:48.434Z,41.10
2019-01-24T07:21:17.174Z,45.13
2019-01-24T07:23:45.775Z,43.23
2019-01-24T07:26:14.420Z,42.90
2019-01-24T07:28:43.333Z,39.70
2019-01-24T07:31:11.893Z,45.23
2019-01-24T07:33:40.556Z,43.20
2019-01-24T07:36:10.481Z,41.13
2019-01-24T07:38:39.203Z,44.00
2019-01-24T07:41:07.894Z,44.30
2019-01-24T07:43:36.567Z,42.93
2019-01-24T07:46:05.623Z,43.87
2019-01-24T07:48:34.272Z,41.05
2019-01-24T07:51:02.863Z,43.33
2019-01-24T07:53:31.540Z,42.57
2019-01-24T07:56:00.258Z,41.87
2019-01-24T07:58:28.983Z,43.77
2019-01-24T08:00:57.633Z,42.20
2019-01-24T08:03:26.285Z,42.60
2019-01-24T08:05:54.958Z,43.73
2019-01-24T08:08:23.680Z,40.10
2019-01-24T08:10:52.289Z,40.65
2019-01-24T08:13:20.964Z,42.43
2019-01-24T08:15:50.770Z,42.00
2019-01-24T08:18:19.367Z,41.43
2019-01-24T08:20:47.946Z,40.90
2019-01-24T08:23:16.513Z,39.43
2019-01-24T08:25:45.096Z,39.67
2019-01-24T08:28:13.729Z,41.10
2019-01-24T08:30:42.385Z,41.40
2019-01-24T08:33:11.079Z,38.37
2019-01-24T08:35:39.646Z,39.50
2019-01-24T08:38:08.416Z,41.47
2019-01-24T08:40:37.060Z,39.60
2019-01-24T08:43:05.671Z,40.33
2019-01-24T08:45:34.615Z,40.73
2019-01-24T08:48:05.706Z,37.87
2019-01-24T08:50:34.344Z,41.18
2019-01-24T08:53:03.110Z,41.63
2019-01-24T08:55:37.001Z,42.10
2019-01-24T08:58:06.254Z,41.63
2019-01-24T09:00:34.854Z,40.63
2019-01-24T09:03:03.674Z,40.33
2019-01-24T09:05:32.403Z,41.40
2019-01-24T09:08:01.220Z,41.33
2019-01-24T09:10:32.125Z,41.50
2019-01-24T09:13:00.860Z,39.57
2019-01-24T09:15:29.487Z,41.20
2019-01-24T09:17:58.161Z,41.53
2019-01-24T09:20:26.819Z,40.47
2019-01-24T09:22:55.656Z,42.33
2019-01-24T09:25:24.376Z,40.08
2019-01-24T09:27:53.095Z,42.87
2019-01-24T09:30:23.802Z,39.63
2019-01-24T09:32:52.652Z,41.10
2019-01-24T09:35:21.342Z,41.27
2019-01-24T09:37:49.975Z,43.90
2019-01-24T09:40:18.687Z,43.30
2019-01-24T09:42:47.281Z,41.57
2019-01-24T09:45:24.380Z,41.83
2019-01-24T09:47:53.943Z,40.53
2019-01-24T09:50:23.278Z,40.33
2019-01-24T09:52:51.842Z,42.07
2019-01-24T09:55:20.625Z,40.67
2019-01-24T09:57:49.349Z,42.77
2019-01-24T10:00:23.116Z,42.23
2019-01-24T10:02:51.811Z,43.50
2019-01-24T10:05:20.432Z,43.30
2019-01-24T10:07:49.136Z,39.83
2019-01-24T10:10:19.836Z,43.73
2019-01-24T10:12:48.457Z,40.97
2019-01-24T10:15:17.365Z,40.37
2019-01-24T10:17:45.949Z,39.17
2019-01-24T10:20:15.938Z,41.83
2019-01-24T10:22:44.602Z,42.10
2019-01-24T10:25:15.731Z,40.47
2019-01-24T10:27:44.418Z,40.43
2019-01-24T10:30:14.649Z,41.73
2019-01-24T10:32:43.169Z,42.33
2019-01-24T10:35:11.823Z,41.87
2019-01-24T10:37:40.417Z,41.73
2019-01-24T10:40:12.011Z,38.67
2019-01-24T10:42:40.897Z,39.00
2019-01-24T10:45:11.881Z,40.80
2019-01-24T10:47:40.639Z,44.70
2019-01-24T10:50:10.686Z,44.53
2019-01-24T10:52:39.333Z,44.87
2019-01-24T10:55:13.585Z,42.30
2019-01-24T10:57:40.107Z,40.80
2019-01-24T11:00:12.574Z,41.27
2019-01-24T11:02:41.150Z,39.03
2019-01-24T11:05:11.192Z,34.33
2019-01-24T11:07:39.791Z,35.63
2019-01-24T11:10:10.219Z,38.43
2019-01-24T11:12:38.857Z,37.77
2019-01-24T11:15:09.862Z,37.78
2019-01-24T11:17:38.432Z,36.57
2019-01-24T11:20:08.793Z,32.37
2019-01-24T11:22:37.472Z,33.43
2019-01-24T11:25:07.060Z,34.43
2019-01-24T11:27:35.706Z,33.50
2019-01-24T11:30:05.425Z,32.93
2019-01-24T11:32:34.010Z,28.57
2019-01-24T11:35:02.735Z,27.03
2019-01-24T11:37:31.485Z,26.13
2019-01-24T11:40:00.195Z,23.37
2019-01-24T11:42:28.752Z,23.67
2019-01-24T11:44:57.347Z,24.85
2019-01-24T11:47:25.992Z,25.63
2019-01-24T11:49:54.660Z,23.63
2019-01-24T11:52:23.283Z,23.80
2019-01-24T11:54:51.886Z,23.27
2019-01-24T11:57:20.497Z,19.77
2019-01-24T11:59:49.146Z,27.90
2019-01-24T12:02:17.818Z,20.70
2019-01-24T12:04:46.423Z,25.30
2019-01-24T12:07:15.171Z,24.43
2019-01-24T12:09:44.817Z,23.77
2019-01-24T12:12:13.476Z,24.80
2019-01-24T12:14:42.139Z,24.57
2019-01-24T12:17:10.819Z,25.50
2019-01-24T12:19:39.451Z,22.07
2019-01-24T12:22:08.144Z,23.23
2019-01-24T12:24:36.747Z,23.37
2019-01-24T12:27:05.451Z,25.43
2019-01-24T12:29:34.063Z,25.13
2019-01-24T12:32:02.727Z,25.63
2019-01-24T12:34:31.494Z,22.70
2019-01-24T12:37:00.162Z,24.33
2019-01-24T12:39:28.759Z,23.53
2019-01-24T12:41:57.414Z,22.87
2019-01-24T12:44:26.023Z,21.87
2019-01-24T12:46:54.722Z,20.70
2019-01-24T12:49:23.672Z,23.27
2019-01-24T12:51:52.818Z,22.17
2019-01-24T12:54:21.467Z,23.80
2019-01-24T12:56:50.066Z,23.03
2019-01-24T12:59:18.723Z,22.13
2019-01-24T13:01:47.334Z,21.17
2019-01-24T13:04:16.011Z,21.57
2019-01-24T13:06:44.671Z,22.90
2019-01-24T13:09:13.357Z,22.27
2019-01-24T13:11:42.071Z,21.97
2019-01-24T13:14:10.724Z,23.37
2019-01-24T13:16:39.337Z,23.23
2019-01-24T13:19:07.986Z,24.33
2019-01-24T13:21:36.561Z,24.27
2019-01-24T13:24:05.359Z,21.30
2019-01-24T13:26:34.009Z,22.20
2019-01-24T13:29:02.608Z,20.93
2019-01-24T13:31:31.176Z,23.37
2019-01-24T13:33:59.822Z,20.83
2019-01-24T13:36:28.443Z,25.57
2019-01-24T13:38:57.093Z,25.57
2019-01-24T13:41:25.683Z,25.77
2019-01-24T13:43:54.268Z,25.73
2019-01-24T13:46:22.921Z,24.70
2019-01-24T13:48:51.504Z,26.77
2019-01-24T13:51:20.086Z,23.93
2019-01-24T13:53:48.782Z,25.47
2019-01-24T13:56:17.378Z,23.87
2019-01-24T13:58:46.047Z,24.20
2019-01-24T14:01:14.652Z,24.03
2019-01-24T14:03:51.440Z,23.30
2019-01-24T14:06:20.089Z,22.67
2019-01-24T14:08:48.724Z,23.57
2019-01-24T14:11:18.184Z,26.03
2019-01-24T14:13:47.171Z,25.93
2019-01-24T14:16:15.794Z,25.37
2019-01-24T14:18:44.413Z,25.67
2019-01-24T14:21:13.060Z,22.70
2019-01-24T14:23:41.756Z,25.20
2019-01-24T14:26:10.554Z,24.57
2019-01-24T14:28:39.119Z,25.77
2019-01-24T14:31:07.793Z,30.60
2019-01-24T14:33:36.441Z,26.70
2019-01-24T14:36:05.943Z,21.57
2019-01-24T14:38:34.689Z,21.15
2019-01-24T14:41:03.330Z,28.10
2019-01-24T14:43:31.925Z,25.70
2019-01-24T14:46:00.601Z,26.83
2019-01-24T14:48:30.426Z,23.30
2019-01-24T14:50:59.106Z,21.80
2019-01-24T14:53:28.092Z,22.43
2019-01-24T14:55:56.701Z,23.10
2019-01-24T14:58:25.352Z,17.87
2019-01-24T15:00:58.198Z,18.97
2019-01-24T15:03:26.863Z,19.83
2019-01-24T15:05:55.456Z,20.90
2019-01-24T15:08:24.117Z,20.07
2019-01-24T15:10:52.732Z,19.57
2019-01-24T15:13:21.426Z,17.37
2019-01-24T15:15:50.055Z,18.60
2019-01-24T15:18:18.638Z,19.43
2019-01-24T15:20:47.368Z,17.93
2019-01-24T15:23:16.046Z,18.67
2019-01-24T15:25:44.753Z,19.63
2019-01-24T15:28:13.536Z,20.60
2019-01-24T15:30:42.205Z,20.73
2019-01-24T15:33:10.791Z,20.87
2019-01-24T15:35:39.523Z,23.50
2019-01-24T15:38:08.161Z,20.83
2019-01-24T15:40:36.763Z,20.23
2019-01-24T15:43:05.812Z,20.17
2019-01-24T15:45:34.464Z,20.00
2019-01-24T15:48:03.084Z,19.27
2019-01-24T15:50:31.750Z,19.47
2019-01-24T15:53:00.353Z,20.80
2019-01-24T15:55:28.939Z,21.00
2019-01-24T15:57:57.591Z,21.87
2019-01-24T16:00:30.950Z,24.30
2019-01-24T16:02:59.538Z,24.53
2019-01-24T16:05:28.174Z,22.90
2019-01-24T16:08:01.605Z,23.43
2019-01-24T16:10:27.299Z,21.47
2019-01-24T16:12:56.019Z,20.23
2019-01-24T16:15:34.055Z,21.80
2019-01-24T16:18:02.796Z,18.40
2019-01-24T16:20:31.409Z,16.33
2019-01-24T16:23:00.059Z,21.10
2019-01-24T16:25:30.166Z,21.97
2019-01-24T16:27:58.807Z,19.93
2019-01-24T16:30:29.378Z,20.33
2019-01-24T16:32:58.035Z,21.27
2019-01-24T16:35:26.772Z,22.23
2019-01-24T16:37:55.382Z,24.53
2019-01-24T16:40:25.144Z,23.00
2019-01-24T16:42:53.759Z,20.93
2019-01-24T16:45:24.177Z,21.77
2019-01-24T16:47:52.823Z,19.50
2019-01-24T16:50:22.015Z,21.03
2019-01-24T16:52:50.724Z,21.97
2019-01-24T16:55:19.356Z,22.67
2019-01-24T16:57:48.137Z,20.20
2019-01-24T17:00:22.276Z,19.83
2019-01-24T17:02:50.932Z,21.20
2019-01-24T17:05:20.329Z,20.17
2019-01-24T17:07:49.009Z,24.60
2019-01-24T17:10:18.869Z,22.40
2019-01-24T17:12:47.600Z,17.20
2019-01-24T17:15:17.008Z,20.93
2019-01-24T17:17:45.666Z,18.32
2019-01-24T17:20:17.324Z,19.90
2019-01-24T17:22:46.005Z,21.60
2019-01-24T17:25:14.623Z,21.50
2019-01-24T17:27:46.269Z,24.00
2019-01-24T17:30:19.330Z,22.20
2019-01-24T17:32:48.201Z,22.73
2019-01-24T17:35:16.969Z,19.53
2019-01-24T17:37:45.602Z,23.15
2019-01-24T17:40:17.515Z,22.63
2019-01-24T17:42:46.165Z,24.30
2019-01-24T17:45:16.103Z,25.23
2019-01-24T17:47:44.737Z,26.63
2019-01-24T17:50:13.726Z,24.27
2019-01-24T17:52:42.313Z,24.33
2019-01-24T17:55:14.065Z,26.43
2019-01-24T17:57:42.685Z,24.10
2019-01-24T18:00:15.978Z,28.73
2019-01-24T18:02:44.642Z,30.40
2019-01-24T18:05:13.280Z,25.80
2019-01-24T18:07:41.859Z,26.60
2019-01-24T18:10:14.299Z,26.33
2019-01-24T18:12:43.016Z,28.83
2019-01-24T18:15:14.638Z,26.35
2019-01-24T18:17:43.294Z,22.17
2019-01-24T18:20:18.289Z,23.73
2019-01-24T18:22:44.991Z,22.30
2019-01-24T18:25:13.651Z,26.73
2019-01-24T18:27:42.234Z,25.73
2019-01-24T18:30:14.568Z,27.40
2019-01-24T18:32:43.274Z,22.97
2019-01-24T18:35:12.301Z,26.67
2019-01-24T18:37:41.274Z,25.57
2019-01-24T18:40:12.570Z,26.03
2019-01-24T18:42:41.143Z,27.73
2019-01-24T18:45:12.421Z,25.13
2019-01-24T18:47:40.967Z,26.87
2019-01-24T18:50:12.998Z,26.63
2019-01-24T18:52:41.594Z,24.50
2019-01-24T18:55:10.517Z,26.57
2019-01-24T18:57:39.162Z,23.07
2019-01-24T19:00:10.976Z,24.93
2019-01-24T19:02:39.585Z,26.17
2019-01-24T19:05:09.300Z,23.30
2019-01-24T19:07:38.547Z,27.03
2019-01-24T19:10:07.943Z,25.50
2019-01-24T19:12:36.595Z,21.10
2019-01-24T19:15:07.305Z,14.53
2019-01-24T19:17:35.896Z,18.57
2019-01-24T19:20:05.228Z,17.03
2019-01-24T19:22:33.879Z,25.70
2019-01-24T19:25:02.566Z,26.33
2019-01-24T19:27:31.198Z,27.67
2019-01-24T19:29:59.862Z,18.40
2019-01-24T19:32:28.498Z,34.80
2019-01-24T19:34:57.246Z,21.13
2019-01-24T19:37:25.902Z,20.20
2019-01-24T19:39:54.563Z,25.83
2019-01-24T19:42:23.364Z,24.53
2019-01-24T19:44:51.974Z,25.23
2019-01-24T19:47:20.590Z,21.97
2019-01-24T19:49:49.163Z,26.87
2019-01-24T19:52:17.761Z,25.13
2019-01-24T19:54:46.330Z,24.67
2019-01-24T19:57:15.119Z,24.63
2019-01-24T19:59:43.702Z,25.07
2019-01-24T20:02:12.317Z,24.30
2019-01-24T20:04:40.945Z,23.90
2019-01-24T20:07:10.055Z,23.83
2019-01-24T20:09:38.729Z,26.80
2019-01-24T20:12:07.360Z,25.50
2019-01-24T20:14:35.967Z,25.00
2019-01-24T20:17:04.590Z,26.47
2019-01-24T20:19:33.286Z,24.60
2019-01-24T20:22:01.991Z,25.40
2019-01-24T20:24:30.630Z,25.27
2019-01-24T20:26:59.256Z,23.73
2019-01-24T20:29:27.876Z,26.87
2019-01-24T20:31:56.481Z,25.77
2019-01-24T20:34:25.482Z,24.40
2019-01-24T20:36:54.124Z,20.07
2019-01-24T20:39:22.717Z,26.53
2019-01-24T20:41:51.352Z,27.53
2019-01-24T20:44:20.028Z,25.67
2019-01-24T20:46:48.690Z,29.93
2019-01-24T20:49:17.284Z,27.83
2019-01-24T20:51:45.941Z,26.37
2019-01-24T20:54:14.539Z,26.40
2019-01-24T20:56:43.112Z,26.63
2019-01-24T20:59:11.729Z,29.90
2019-01-24T21:01:40.351Z,28.47
2019-01-24T21:04:08.947Z,28.03
2019-01-24T21:06:37.592Z,28.17
2019-01-24T21:09:14.697Z,25.93
2019-01-24T21:11:39.031Z,26.77
2019-01-24T21:14:07.695Z,28.73
2019-01-24T21:16:36.326Z,29.40
2019-01-24T21:19:04.951Z,28.33
2019-01-24T21:21:33.572Z,25.60
2019-01-24T21:24:02.254Z,28.40
2019-01-24T21:26:30.861Z,26.57
2019-01-24T21:28:59.538Z,27.40
2019-01-24T21:31:28.108Z,28.33
2019-01-24T21:33:56.720Z,27.77
2019-01-24T21:36:25.377Z,27.93
2019-01-24T21:38:53.972Z,26.33
2019-01-24T21:41:22.684Z,29.77
2019-01-24T21:43:51.403Z,25.07
2019-01-24T21:46:20.085Z,27.33
2019-01-24T21:48:48.689Z,24.20
2019-01-24T21:51:17.298Z,25.13
2019-01-24T21:53:45.907Z,26.63
2019-01-24T21:56:14.528Z,25.27
2019-01-24T21:58:43.518Z,11.53
2019-01-24T22:01:12.116Z,28.33
2019-01-24T22:03:40.741Z,28.30
2019-01-24T22:06:09.360Z,28.33
2019-01-24T22:08:37.930Z,27.67
2019-01-24T22:11:06.701Z,28.20
2019-01-24T22:13:35.344Z,27.33
2019-01-24T22:16:03.975Z,28.67
2019-01-24T22:18:32.587Z,20.57
2019-01-24T22:21:01.203Z,28.33
2019-01-24T22:23:29.878Z,28.47
2019-01-24T22:25:58.705Z,28.70
2019-01-24T22:28:27.359Z,27.60
2019-01-24T22:30:57.819Z,29.30
2019-01-24T22:33:26.490Z,28.73
2019-01-24T22:35:55.457Z,28.77
2019-01-24T22:38:24.447Z,20.13
2019-01-24T22:40:53.106Z,23.70
2019-01-24T22:43:22.250Z,25.03
2019-01-24T22:45:50.874Z,26.87
2019-01-24T22:48:19.509Z,29.77
2019-01-24T22:50:48.133Z,29.23
2019-01-24T22:53:16.767Z,29.67
2019-01-24T22:55:45.361Z,26.23
2019-01-24T22:58:14.010Z,28.07
2019-01-24T23:00:55.630Z,28.27
2019-01-24T23:03:51.599Z,30.63
2019-01-24T23:06:20.225Z,30.60
2019-01-24T23:08:48.962Z,30.80
2019-01-24T23:11:17.583Z,30.10
2019-01-24T23:13:46.226Z,26.87
2019-01-24T23:16:14.904Z,23.57
2019-01-24T23:18:43.637Z,22.30
2019-01-24T23:21:12.275Z,21.63
2019-01-24T23:23:40.889Z,21.97
2019-01-24T23:26:09.469Z,24.57
2019-01-24T23:28:38.077Z,24.47
2019-01-24T23:31:06.680Z,26.13
2019-01-24T23:33:35.538Z,24.27
2019-01-24T23:36:04.201Z,26.80
2019-01-24T23:38:32.986Z,25.12
2019-01-24T23:41:01.727Z,23.77
2019-01-24T23:43:30.389Z,24.37
2019-01-24T23:45:58.966Z,24.40
2019-01-24T23:48:27.596Z,27.20
2019-01-24T23:50:56.339Z,26.87
2019-01-24T23:53:24.945Z,28.17
2019-01-24T23:55:53.559Z,23.43
2019-01-24T23:58:22.183Z,27.13
